Lake City, Colorado
Current Conditions -  °F | °C
As of 3:15 AM on Sunday 25 Jan 2015 (Local Time) from KTEX Reporting Station
Clear Clear  
Wind Chill: 27°   Ceiling: Unl
Heat Index: 27°   Visibility: 10mi
Dew Point: 14°   Wind: 3mph
Humidity: 59%   Direction: 120°ESE
Pressure: 30.38"   Gusts: NA
Location:  38.03°N, 107.32°W
Report Text: KTEX 251015Z AUTO 12003KT 10SM CLR M03/M10 A3038 RMK AO2 T10271098
Loading
Personal Weather Stations






























Interactive Weather Map New forecast layout! Learn more

10-Day Weather Forecast

Advertisements
Track Severe Weather on mobile